createdAt,value
2017-06-02T00:02:31.000Z,34.849
2017-06-02T00:12:31.000Z,34.901
2017-06-02T00:22:31.000Z,34.963
2017-06-02T00:32:31.000Z,35.027
2017-06-02T00:42:31.000Z,35.112
2017-06-02T00:52:31.000Z,35.131
2017-06-02T01:02:32.000Z,35.164
2017-06-02T01:12:32.000Z,35.249
2017-06-02T01:22:32.000Z,35.291
2017-06-02T01:32:32.000Z,35.408
2017-06-02T01:42:32.000Z,35.504
2017-06-02T01:52:32.000Z,35.512
2017-06-02T02:02:32.000Z,35.597
2017-06-02T02:12:32.000Z,35.726
2017-06-02T02:22:32.000Z,35.834
2017-06-02T02:32:32.000Z,35.909
2017-06-02T02:42:32.000Z,36.048
2017-06-02T02:52:32.000Z,36.176
2017-06-02T03:02:32.000Z,36.188
2017-06-02T03:12:32.000Z,36.502
2017-06-02T03:22:32.000Z,36.599
2017-06-02T03:32:36.000Z,36.619
2017-06-02T03:42:32.000Z,36.768
2017-06-02T03:52:32.000Z,36.746
2017-06-02T04:02:32.000Z,36.766
2017-06-02T04:12:32.000Z,36.852
2017-06-02T04:22:32.000Z,36.874
2017-06-02T04:32:32.000Z,36.894
2017-06-02T04:42:32.000Z,36.882
2017-06-02T04:52:32.000Z,36.991
2017-06-02T05:02:32.000Z,37.014
2017-06-02T05:12:32.000Z,37.048
2017-06-02T05:22:32.000Z,36.889
2017-06-02T05:32:32.000Z,36.623
2017-06-02T05:42:32.000Z,36.77
2017-06-02T05:52:32.000Z,36.656
2017-06-02T06:02:32.000Z,36.53
2017-06-02T06:12:32.000Z,36.502
2017-06-02T06:22:32.000Z,36.5
2017-06-02T06:32:32.000Z,36.877
2017-06-02T06:42:32.000Z,37.178
2017-06-02T06:52:32.000Z,37.202
2017-06-02T07:02:32.000Z,37.661
2017-06-02T07:12:32.000Z,37.456
2017-06-02T07:22:32.000Z,37.895
2017-06-02T07:32:32.000Z,38.258
2017-06-02T07:42:32.000Z,37.707
2017-06-02T07:52:32.000Z,36.815
2017-06-02T08:02:32.000Z,36.469
2017-06-02T08:12:32.000Z,36.755
2017-06-02T08:22:33.000Z,36.339
2017-06-02T08:32:32.000Z,36.273
2017-06-02T08:42:32.000Z,34.154
2017-06-02T08:52:33.000Z,33.746
2017-06-02T09:02:33.000Z,33.817
2017-06-02T09:12:32.000Z,33.992
2017-06-02T09:22:33.000Z,32.875
2017-06-02T09:32:33.000Z,33.394
2017-06-02T09:42:33.000Z,31.908
2017-06-02T09:52:33.000Z,32.529
2017-06-02T10:02:33.000Z,32.342
2017-06-02T10:12:33.000Z,31.579
2017-06-02T10:22:33.000Z,31.515
2017-06-02T10:32:33.000Z,30.161
2017-06-02T10:42:33.000Z,29.563
2017-06-02T10:52:33.000Z,30.146
2017-06-02T11:02:33.000Z,29.527
2017-06-02T11:12:33.000Z,29.219
2017-06-02T11:22:33.000Z,30.223
2017-06-02T11:32:33.000Z,28.733
2017-06-02T11:42:33.000Z,30.101
2017-06-02T11:52:34.000Z,29.985
2017-06-02T12:02:33.000Z,29.889
2017-06-02T12:12:33.000Z,28.806
2017-06-02T12:22:33.000Z,29.315
2017-06-02T12:32:35.000Z,29.303
2017-06-02T12:42:33.000Z,29.47
2017-06-02T12:52:33.000Z,29.903
2017-06-02T13:02:33.000Z,29.955
2017-06-02T13:12:33.000Z,29.659
2017-06-02T13:22:33.000Z,29.637
2017-06-02T13:32:33.000Z,29.272
2017-06-02T13:42:33.000Z,29.909
2017-06-02T13:52:33.000Z,29.447
2017-06-02T14:02:33.000Z,29.176
2017-06-02T14:12:33.000Z,29.71
2017-06-02T14:22:33.000Z,29.433
2017-06-02T14:32:33.000Z,29.319
2017-06-02T14:42:33.000Z,29.819
2017-06-02T14:52:33.000Z,30.151
2017-06-02T15:02:33.000Z,30.879
2017-06-02T15:12:33.000Z,31.434
2017-06-02T15:22:33.000Z,31.095
2017-06-02T15:32:33.000Z,30.97
2017-06-02T15:42:33.000Z,31.077
2017-06-02T15:52:33.000Z,31.183
2017-06-02T16:02:33.000Z,31.333
2017-06-02T16:12:33.000Z,31.17
2017-06-02T16:22:34.000Z,31.031
2017-06-02T19:49:51.000Z,33.863
2017-06-02T19:57:11.000Z,28.786
2017-06-02T20:07:12.000Z,32.316
2017-06-02T20:17:11.000Z,33.204
2017-06-02T20:27:12.000Z,36.135
2017-06-02T20:37:11.000Z,35.244
2017-06-02T20:47:12.000Z,35.891
2017-06-02T20:57:12.000Z,37.467
2017-06-02T21:07:12.000Z,39.653
2017-06-02T21:17:12.000Z,39.288
2017-06-02T21:27:12.000Z,39.658
2017-06-02T21:37:12.000Z,38.354
2017-06-02T21:47:12.000Z,38.28
2017-06-02T21:57:12.000Z,38.895
2017-06-02T22:07:12.000Z,38.703
2017-06-02T22:17:12.000Z,39.209
2017-06-02T22:27:12.000Z,39.153
2017-06-02T22:37:12.000Z,39.47
2017-06-02T22:47:12.000Z,39.49
2017-06-02T22:57:12.000Z,40.283
2017-06-02T23:07:12.000Z,41.055
2017-06-02T23:17:12.000Z,41.187
2017-06-02T23:27:13.000Z,41.455
2017-06-02T23:37:12.000Z,41.525
2017-06-02T23:47:12.000Z,42.131
2017-06-02T23:57:12.000Z,42.085
